createdAt,value
2023-05-25T00:01:47.703Z,1
2023-05-25T00:03:44.513Z,1
2023-05-25T00:05:41.096Z,1
2023-05-25T00:07:41.178Z,1
2023-05-25T00:09:41.053Z,1
2023-05-25T00:11:41.061Z,1
2023-05-25T00:13:44.228Z,1
2023-05-25T00:15:44.609Z,1
2023-05-25T00:17:41.378Z,1
2023-05-25T00:19:41.085Z,1
2023-05-25T00:21:44.517Z,1
2023-05-25T00:23:41.209Z,1
2023-05-25T00:25:41.170Z,1
2023-05-25T00:27:41.077Z,1
2023-05-25T00:29:41.068Z,1
2023-05-25T00:31:41.261Z,1
2023-05-25T00:35:41.038Z,1
2023-05-25T00:37:41.402Z,1
2023-05-25T00:39:44.537Z,1
2023-05-25T00:41:41.227Z,1
2023-05-25T00:43:41.103Z,1
2023-05-25T00:45:41.404Z,1
2023-05-25T00:47:41.095Z,1
2023-05-25T00:49:44.699Z,1
2023-05-25T00:51:41.099Z,1
2023-05-25T00:53:41.160Z,1
2023-05-25T00:55:47.655Z,1
2023-05-25T00:57:41.118Z,1
2023-05-25T00:59:44.545Z,1
2023-05-25T01:01:44.498Z,1
2023-05-25T01:03:41.471Z,1
2023-05-25T01:07:44.637Z,1
2023-05-25T01:09:47.697Z,1
2023-05-25T01:11:41.108Z,1
2023-05-25T01:13:44.530Z,1
2023-05-25T01:15:41.990Z,1
2023-05-25T01:17:44.368Z,1
2023-05-25T01:19:47.506Z,1
2023-05-25T01:21:44.436Z,1
2023-05-25T01:23:41.115Z,1
2023-05-25T01:25:44.812Z,1
2023-05-25T01:27:41.403Z,1
2023-05-25T01:29:41.156Z,1
2023-05-25T01:31:41.195Z,1
2023-05-25T01:33:41.221Z,1
2023-05-25T01:35:41.314Z,1
2023-05-25T01:37:41.469Z,1
2023-05-25T01:39:41.534Z,1
2023-05-25T01:41:41.482Z,1
2023-05-25T01:43:44.504Z,1
2023-05-25T01:45:41.074Z,1
2023-05-25T01:47:41.152Z,1
2023-05-25T01:49:41.137Z,1
2023-05-25T01:51:40.963Z,1
2023-05-25T01:53:44.657Z,1
2023-05-25T01:55:44.848Z,1
2023-05-25T01:59:41.066Z,1
2023-05-25T02:01:41.236Z,1
2023-05-25T02:03:41.383Z,1
2023-05-25T02:05:41.430Z,1
2023-05-25T02:07:44.674Z,1
2023-05-25T02:09:41.229Z,1
2023-05-25T02:11:41.111Z,1
2023-05-25T02:15:41.113Z,1
2023-05-25T02:17:41.344Z,1
2023-05-25T02:19:41.417Z,1
2023-05-25T02:21:41.235Z,1
2023-05-25T02:23:41.072Z,1
2023-05-25T02:25:41.502Z,0
2023-05-25T02:27:41.575Z,0
2023-05-25T02:29:56.125Z,0
2023-05-25T02:31:44.696Z,0
2023-05-25T02:33:41.083Z,0
2023-05-25T02:35:41.144Z,0
2023-05-25T02:37:41.138Z,0.1
2023-05-25T02:39:41.391Z,0.2
2023-05-25T02:41:41.087Z,0.2
2023-05-25T02:43:41.088Z,0.2
2023-05-25T02:45:40.973Z,0.3
2023-05-25T02:47:40.996Z,0.4
2023-05-25T02:49:44.722Z,0.5
2023-05-25T02:51:41.081Z,0.7
2023-05-25T02:53:41.053Z,1
2023-05-25T02:55:47.773Z,1.4
2023-05-25T02:57:47.714Z,2
2023-05-25T02:59:41.009Z,2.7
2023-05-25T03:01:41.096Z,3.7
2023-05-25T03:03:41.042Z,5.2
2023-05-25T03:05:41.034Z,7
2023-05-25T03:07:44.631Z,10
2023-05-25T03:09:41.168Z,12.8
2023-05-25T03:11:41.223Z,16.4
2023-05-25T03:13:41.162Z,21.1
2023-05-25T03:15:41.540Z,27.1
2023-05-25T03:17:44.597Z,33.1
2023-05-25T03:19:44.619Z,44.7
2023-05-25T03:21:41.142Z,57.4
2023-05-25T03:23:41.396Z,70.1
2023-05-25T03:25:41.260Z,85.6
2023-05-25T03:27:44.526Z,104.6
2023-05-25T03:29:47.622Z,127.7
2023-05-25T03:31:41.549Z,141.2
2023-05-25T03:33:47.567Z,164
2023-05-25T03:35:41.161Z,181.3
2023-05-25T03:37:41.143Z,190.6
2023-05-25T03:39:41.139Z,190.6
2023-05-25T03:41:41.256Z,190.6
2023-05-25T03:43:41.189Z,190.6
2023-05-25T03:45:41.109Z,190.6
2023-05-25T03:47:44.461Z,190.6
2023-05-25T03:49:47.716Z,200.3
2023-05-25T03:51:41.241Z,221.4
2023-05-25T03:53:40.988Z,221.4
2023-05-25T03:55:41.109Z,244.7
2023-05-25T03:57:41.221Z,284.3
2023-05-25T03:59:41.544Z,314.2
2023-05-25T04:01:41.206Z,347.2
2023-05-25T04:05:41.283Z,365
2023-05-25T04:09:41.112Z,383.8
2023-05-25T04:11:41.446Z,383.8
2023-05-25T04:13:41.087Z,403.4
2023-05-25T04:15:41.171Z,403.4
2023-05-25T04:17:41.157Z,383.8
2023-05-25T04:19:41.088Z,330.3
2023-05-25T04:21:41.329Z,314.2
2023-05-25T04:23:41.119Z,330.3
2023-05-25T04:25:41.210Z,383.8
2023-05-25T04:27:41.169Z,445.9
2023-05-25T04:29:41.002Z,518
2023-05-25T04:31:41.170Z,544.6
2023-05-25T04:33:47.691Z,601.8
2023-05-25T04:35:47.535Z,699.2
2023-05-25T04:37:41.199Z,735.1
2023-05-25T04:39:41.102Z,854.1
2023-05-25T04:41:41.604Z,943.9
2023-05-25T04:43:49.331Z,1152.9
2023-05-25T04:45:41.149Z,1212
2023-05-25T04:47:41.598Z,1274.1
2023-05-25T04:49:44.705Z,1339.4
2023-05-25T04:51:41.311Z,1339.4
2023-05-25T04:53:41.261Z,1408.1
2023-05-25T04:55:41.019Z,1636
2023-05-25T04:57:41.112Z,1900.7
2023-05-25T04:59:44.763Z,2208.3
2023-05-25T05:01:41.462Z,2208.3
2023-05-25T05:03:41.433Z,2321.6
2023-05-25T05:05:47.615Z,2208.3
2023-05-25T05:07:41.465Z,1998.2
2023-05-25T05:09:47.612Z,1808
2023-05-25T05:11:41.250Z,1636
2023-05-25T05:13:41.177Z,1480.3
2023-05-25T05:15:41.503Z,1480.3
2023-05-25T05:17:41.490Z,1556.2
2023-05-25T05:19:41.379Z,1808
2023-05-25T05:21:44.645Z,2208.3
2023-05-25T05:23:47.615Z,2565.7
2023-05-25T05:25:41.295Z,2835.6
2023-05-25T05:27:41.052Z,2981
2023-05-25T05:29:41.480Z,2835.6
2023-05-25T05:31:44.644Z,2697.3
2023-05-25T05:33:41.220Z,2835.6
2023-05-25T05:35:41.463Z,2835.6
2023-05-25T05:37:41.405Z,2981
2023-05-25T05:39:41.398Z,2697.3
2023-05-25T05:41:41.154Z,2440.6
2023-05-25T05:43:41.442Z,2321.6
2023-05-25T05:45:41.248Z,2208.3
2023-05-25T05:47:41.159Z,2100.6
2023-05-25T05:49:41.448Z,2100.6
2023-05-25T05:51:41.250Z,2208.3
2023-05-25T05:53:44.669Z,2208.3
2023-05-25T05:55:44.980Z,2321.6
2023-05-25T05:57:41.092Z,2565.7
2023-05-25T05:59:41.124Z,2697.3
2023-05-25T06:01:41.053Z,2697.3
2023-05-25T06:03:41.095Z,2697.3
2023-05-25T06:05:41.707Z,2697.3
2023-05-25T06:07:44.564Z,2835.6
2023-05-25T06:09:41.286Z,2835.6
2023-05-25T06:11:41.568Z,2697.3
2023-05-25T06:13:41.362Z,2697.3
2023-05-25T06:15:41.108Z,2565.7
2023-05-25T06:17:41.414Z,2440.6
2023-05-25T06:19:41.471Z,2321.6
2023-05-25T06:21:41.239Z,2440.6
2023-05-25T06:25:41.597Z,2440.6
2023-05-25T06:27:41.162Z,2321.6
2023-05-25T06:29:41.317Z,2321.6
2023-05-25T06:31:41.164Z,2321.6
2023-05-25T06:33:41.099Z,2440.6
2023-05-25T06:35:47.879Z,2565.7
2023-05-25T06:37:41.481Z,2697.3
2023-05-25T06:39:44.492Z,2835.6
2023-05-25T06:41:41.332Z,2835.6
2023-05-25T06:43:41.163Z,2835.6
2023-05-25T06:45:41.122Z,2981
2023-05-25T06:47:41.163Z,2981
2023-05-25T06:49:44.494Z,2835.6
2023-05-25T06:51:41.096Z,2835.6
2023-05-25T06:53:41.154Z,2981
2023-05-25T06:55:44.791Z,2981
2023-05-25T06:57:41.274Z,2981
2023-05-25T06:59:41.113Z,2981
2023-05-25T07:01:44.649Z,3294.5
2023-05-25T07:03:41.089Z,3463.4
2023-05-25T07:05:41.539Z,3641
2023-05-25T07:07:41.211Z,3641
2023-05-25T07:09:41.328Z,3641
2023-05-25T07:11:47.706Z,3641
2023-05-25T07:13:41.167Z,3641
2023-05-25T07:15:41.109Z,3641
2023-05-25T07:17:41.121Z,3641
2023-05-25T07:19:43.166Z,3827.6
2023-05-25T07:21:41.280Z,4023.9
2023-05-25T07:23:41.138Z,4230.2
2023-05-25T07:25:47.821Z,4675.1
2023-05-25T07:27:44.356Z,4675.1
2023-05-25T07:29:44.598Z,4914.8
2023-05-25T07:33:41.110Z,5166.8
2023-05-25T07:35:47.782Z,5431.7
2023-05-25T07:37:41.130Z,5431.7
2023-05-25T07:39:41.117Z,5431.7
2023-05-25T07:41:41.019Z,5431.7
2023-05-25T07:43:41.636Z,5431.7
2023-05-25T07:45:41.017Z,5710.1
2023-05-25T07:47:41.030Z,5710.1
2023-05-25T07:49:41.203Z,5710.1
2023-05-25T07:51:41.056Z,5710.1
2023-05-25T07:53:41.133Z,5431.7
2023-05-25T07:55:41.013Z,5431.7
2023-05-25T07:57:41.481Z,5710.1
2023-05-25T07:59:41.471Z,5710.1
2023-05-25T08:01:41.240Z,5710.1
2023-05-25T08:05:41.285Z,5431.7
2023-05-25T08:07:42.790Z,5431.7
2023-05-25T08:09:41.169Z,5431.7
2023-05-25T08:11:44.506Z,5431.7
2023-05-25T08:13:41.165Z,5431.7
2023-05-25T08:15:41.451Z,5431.7
2023-05-25T08:17:44.885Z,5710.1
2023-05-25T08:19:41.063Z,6002.9
2023-05-25T08:21:41.100Z,6002.9
2023-05-25T08:23:41.307Z,6002.9
2023-05-25T08:25:41.386Z,6002.9
2023-05-25T08:27:41.182Z,5710.1
2023-05-25T08:29:44.596Z,5710.1
2023-05-25T08:31:41.518Z,5710.1
2023-05-25T08:33:41.009Z,5710.1
2023-05-25T08:35:41.274Z,6310.7
2023-05-25T08:37:41.180Z,6310.7
2023-05-25T08:39:41.461Z,6310.7
2023-05-25T08:41:41.262Z,6310.7
2023-05-25T08:43:41.285Z,6634.2
2023-05-25T08:47:44.597Z,7707.9
2023-05-25T08:49:44.655Z,7707.9
2023-05-25T08:51:41.445Z,7707.9
2023-05-25T08:53:44.466Z,7707.9
2023-05-25T08:55:41.063Z,8103.1
2023-05-25T08:57:41.692Z,7707.9
2023-05-25T08:59:41.440Z,7707.9
2023-05-25T09:01:44.749Z,7707.9
2023-05-25T09:03:44.602Z,7707.9
2023-05-25T09:05:41.142Z,8103.1
2023-05-25T09:07:41.200Z,8955.3
2023-05-25T09:09:44.371Z,9414.4
2023-05-25T09:11:42.259Z,9897.1
2023-05-25T09:13:44.707Z,8955.3
2023-05-25T09:17:41.434Z,8518.5
2023-05-25T09:19:41.540Z,9414.4
2023-05-25T09:21:44.519Z,9897.1
2023-05-25T09:23:41.203Z,9414.4
2023-05-25T09:25:41.321Z,8518.5
2023-05-25T09:27:41.141Z,7332
2023-05-25T09:29:41.083Z,6974.4
2023-05-25T09:31:44.603Z,6310.7
2023-05-25T09:33:44.559Z,6310.7
2023-05-25T09:35:41.027Z,6002.9
2023-05-25T09:37:41.649Z,6002.9
2023-05-25T09:39:41.046Z,6310.7
2023-05-25T09:41:41.490Z,6310.7
2023-05-25T09:43:46.934Z,6310.7
2023-05-25T09:45:44.586Z,6634.2
2023-05-25T09:47:47.687Z,6974.4
2023-05-25T09:49:41.169Z,6634.2
2023-05-25T09:51:41.267Z,6974.4
2023-05-25T09:53:41.235Z,7332
2023-05-25T09:55:51.931Z,6974.4
2023-05-25T09:57:44.637Z,6002.9
2023-05-25T09:59:41.043Z,5431.7
2023-05-25T10:01:44.647Z,5166.8
2023-05-25T10:03:43.740Z,4914.8
2023-05-25T10:05:41.303Z,5166.8
2023-05-25T10:07:41.084Z,5710.1
2023-05-25T10:09:41.027Z,6310.7
2023-05-25T10:11:44.548Z,6310.7
2023-05-25T10:13:41.043Z,6634.2
2023-05-25T10:15:41.120Z,7707.9
2023-05-25T10:17:41.036Z,8103.1
2023-05-25T10:19:41.219Z,8518.5
2023-05-25T10:21:41.182Z,9897.1
2023-05-25T10:23:41.047Z,10404.6
2023-05-25T10:25:41.058Z,11498.8
2023-05-25T10:27:41.199Z,12088.4
2023-05-25T10:29:41.296Z,14044.7
2023-05-25T10:31:41.318Z,10938
2023-05-25T10:33:41.079Z,9897.1
2023-05-25T10:35:51.124Z,10404.6
2023-05-25T10:37:47.789Z,10404.6
2023-05-25T10:39:41.166Z,9414.4
2023-05-25T10:41:41.055Z,11498.8
2023-05-25T10:43:41.210Z,9897.1
2023-05-25T10:45:41.401Z,9897.1
2023-05-25T10:47:44.400Z,9414.4
2023-05-25T10:49:41.061Z,9897.1
2023-05-25T10:51:41.171Z,8955.3
2023-05-25T10:53:44.456Z,9414.4
2023-05-25T10:55:44.960Z,10404.6
2023-05-25T10:57:41.483Z,10938
2023-05-25T10:59:41.018Z,10938
2023-05-25T11:01:41.468Z,10938
2023-05-25T11:03:41.233Z,12088.4
2023-05-25T11:05:41.033Z,12088.4
2023-05-25T11:07:44.498Z,9897.1
2023-05-25T11:09:41.121Z,12088.4
2023-05-25T11:11:41.451Z,11498.8
2023-05-25T11:13:44.230Z,12708.2
2023-05-25T11:15:41.153Z,11498.8
2023-05-25T11:17:41.049Z,11498.8
2023-05-25T11:19:41.592Z,11498.8
2023-05-25T11:21:47.724Z,11498.8
2023-05-25T11:23:41.040Z,14044.7
2023-05-25T11:25:41.187Z,11498.8
2023-05-25T11:27:44.476Z,11498.8
2023-05-25T11:29:41.014Z,11498.8
2023-05-25T11:31:47.571Z,14044.7
2023-05-25T11:33:41.426Z,11498.8
2023-05-25T11:35:41.357Z,10404.6
2023-05-25T11:37:41.447Z,9897.1
2023-05-25T11:39:41.125Z,9897.1
2023-05-25T11:41:41.143Z,9897.1
2023-05-25T11:43:44.233Z,10404.6
2023-05-25T11:45:41.202Z,9897.1
2023-05-25T11:47:44.512Z,11498.8
2023-05-25T11:49:41.059Z,10404.6
2023-05-25T11:53:41.150Z,9897.1
2023-05-25T11:55:44.364Z,10404.6
2023-05-25T11:57:41.450Z,13359.7
2023-05-25T12:01:41.243Z,13359.7
2023-05-25T12:03:41.579Z,11498.8
2023-05-25T12:05:41.096Z,11498.8
2023-05-25T12:07:41.100Z,10938
2023-05-25T12:09:44.649Z,12708.2
2023-05-25T12:11:41.158Z,9414.4
2023-05-25T12:13:44.338Z,12708.2
2023-05-25T12:15:41.607Z,9897.1
2023-05-25T12:17:41.052Z,9897.1
2023-05-25T12:19:41.225Z,10938
2023-05-25T12:21:41.399Z,12708.2
2023-05-25T12:23:41.145Z,9897.1
2023-05-25T12:25:50.139Z,10938
2023-05-25T12:27:41.203Z,10938
2023-05-25T12:29:41.130Z,8518.5
2023-05-25T12:31:41.272Z,10404.6
2023-05-25T12:33:44.319Z,9897.1
2023-05-25T12:35:41.340Z,9897.1
2023-05-25T12:37:41.196Z,10404.6
2023-05-25T12:39:44.332Z,10404.6
2023-05-25T12:41:41.303Z,10938
2023-05-25T12:43:41.095Z,10938
2023-05-25T12:45:44.428Z,10404.6
2023-05-25T12:47:44.572Z,6974.4
2023-05-25T12:49:41.137Z,9897.1
2023-05-25T12:51:41.052Z,9897.1
2023-05-25T12:53:41.062Z,9897.1
2023-05-25T12:55:41.205Z,7332
2023-05-25T12:57:44.698Z,8103.1
2023-05-25T12:59:41.490Z,8103.1
2023-05-25T13:01:41.214Z,10938
2023-05-25T13:03:47.795Z,9897.1
2023-05-25T13:05:41.379Z,7707.9
2023-05-25T13:07:44.606Z,8518.5
2023-05-25T13:09:41.079Z,7707.9
2023-05-25T13:11:41.076Z,10404.6
2023-05-25T13:13:41.248Z,8518.5
2023-05-25T13:15:41.514Z,10404.6
2023-05-25T13:17:41.262Z,9897.1
2023-05-25T13:19:41.191Z,9897.1
2023-05-25T13:21:44.384Z,8955.3
2023-05-25T13:23:41.071Z,7332
2023-05-25T13:25:47.806Z,7332
2023-05-25T13:27:44.895Z,8955.3
2023-05-25T13:29:41.460Z,10938
2023-05-25T13:31:44.511Z,9897.1
2023-05-25T13:33:44.661Z,10404.6
2023-05-25T13:35:44.675Z,8103.1
2023-05-25T13:37:41.501Z,8518.5
2023-05-25T13:39:47.482Z,10404.6
2023-05-25T13:41:41.081Z,9897.1
2023-05-25T13:43:41.536Z,9414.4
2023-05-25T13:45:41.239Z,8955.3
2023-05-25T13:47:41.187Z,9414.4
2023-05-25T13:49:41.276Z,8103.1
2023-05-25T13:51:47.766Z,6310.7
2023-05-25T13:53:47.667Z,8103.1
2023-05-25T13:55:41.198Z,9414.4
2023-05-25T13:57:41.305Z,9414.4
2023-05-25T13:59:41.237Z,9414.4
2023-05-25T14:01:41.264Z,8955.3
2023-05-25T14:03:41.417Z,8518.5
2023-05-25T14:05:41.093Z,8103.1
2023-05-25T14:07:44.765Z,7707.9
2023-05-25T14:09:44.456Z,5166.8
2023-05-25T14:11:44.423Z,7332
2023-05-25T14:13:41.540Z,6974.4
2023-05-25T14:15:41.157Z,7332
2023-05-25T14:17:47.929Z,8103.1
2023-05-25T14:19:41.193Z,7707.9
2023-05-25T14:21:41.176Z,7707.9
2023-05-25T14:23:41.083Z,7707.9
2023-05-25T14:25:44.714Z,7707.9
2023-05-25T14:27:41.444Z,7332
2023-05-25T14:29:41.157Z,7332
2023-05-25T14:31:44.573Z,6974.4
2023-05-25T14:33:42.819Z,6974.4
2023-05-25T14:35:41.187Z,4447.1
2023-05-25T14:37:41.299Z,6974.4
2023-05-25T14:39:44.666Z,6974.4
2023-05-25T14:41:44.548Z,7332
2023-05-25T14:43:41.098Z,7332
2023-05-25T14:45:44.665Z,6974.4
2023-05-25T14:47:41.219Z,6310.7
2023-05-25T14:49:41.194Z,6634.2
2023-05-25T14:51:41.059Z,6634.2
2023-05-25T14:53:41.223Z,6310.7
2023-05-25T14:55:41.204Z,6002.9
2023-05-25T14:57:41.170Z,6002.9
2023-05-25T14:59:41.179Z,6002.9
2023-05-25T15:01:47.786Z,5710.1
2023-05-25T15:03:41.270Z,5710.1
2023-05-25T15:05:41.046Z,5710.1
2023-05-25T15:07:41.432Z,5710.1
2023-05-25T15:09:41.402Z,5710.1
2023-05-25T15:13:47.884Z,5710.1
2023-05-25T15:15:41.410Z,5431.7
2023-05-25T15:17:41.527Z,5431.7
2023-05-25T15:19:47.801Z,5431.7
2023-05-25T15:21:41.236Z,5431.7
2023-05-25T15:23:41.515Z,5431.7
2023-05-25T15:25:44.475Z,5431.7
2023-05-25T15:27:44.528Z,5166.8
2023-05-25T15:29:41.085Z,5166.8
2023-05-25T15:31:41.392Z,5166.8
2023-05-25T15:33:51.885Z,5166.8
2023-05-25T15:35:41.371Z,5166.8
2023-05-25T15:37:41.386Z,5166.8
2023-05-25T15:39:41.544Z,5166.8
2023-05-25T15:41:41.389Z,4914.8
2023-05-25T15:43:41.179Z,4914.8
2023-05-25T15:45:41.197Z,4914.8
2023-05-25T15:47:41.647Z,4914.8
2023-05-25T15:49:41.345Z,4914.8
2023-05-25T15:51:41.208Z,4914.8
2023-05-25T15:53:41.249Z,4675.1
2023-05-25T15:55:41.567Z,4675.1
2023-05-25T15:57:47.863Z,4675.1
2023-05-25T15:59:41.157Z,4675.1
2023-05-25T16:01:41.260Z,4675.1
2023-05-25T16:03:41.249Z,4447.1
2023-05-25T16:05:41.075Z,4447.1
2023-05-25T16:07:47.753Z,4447.1
2023-05-25T16:09:41.501Z,4447.1
2023-05-25T16:11:41.184Z,4447.1
2023-05-25T16:13:41.341Z,4230.2
2023-05-25T16:15:41.314Z,4230.2
2023-05-25T16:17:41.349Z,4230.2
2023-05-25T16:19:41.305Z,4230.2
2023-05-25T16:23:44.609Z,4230.2
2023-05-25T16:25:44.749Z,4023.9
2023-05-25T16:27:41.331Z,4023.9
2023-05-25T16:29:41.371Z,4023.9
2023-05-25T16:31:41.285Z,4023.9
2023-05-25T16:33:41.242Z,3827.6
2023-05-25T16:35:44.784Z,3827.6
2023-05-25T16:37:41.373Z,3827.6
2023-05-25T16:39:44.668Z,3827.6
2023-05-25T16:41:41.230Z,3641
2023-05-25T16:43:41.133Z,3641
2023-05-25T16:45:41.238Z,3641
2023-05-25T16:47:44.599Z,3463.4
2023-05-25T16:49:41.108Z,3463.4
2023-05-25T16:51:44.551Z,3463.4
2023-05-25T16:53:44.568Z,3463.4
2023-05-25T16:55:41.117Z,3294.5
2023-05-25T16:57:41.075Z,3294.5
2023-05-25T16:59:41.585Z,3294.5
2023-05-25T17:01:41.221Z,3133.8
2023-05-25T17:03:41.209Z,3133.8
2023-05-25T17:05:44.510Z,3133.8
2023-05-25T17:07:44.734Z,2981
2023-05-25T17:09:44.465Z,2981
2023-05-25T17:13:47.627Z,2835.6
2023-05-25T17:15:41.585Z,2835.6
2023-05-25T17:17:44.509Z,2835.6
2023-05-25T17:19:41.221Z,2697.3
2023-05-25T17:21:41.340Z,2697.3
2023-05-25T17:23:41.154Z,2565.7
2023-05-25T17:25:41.206Z,2565.7
2023-05-25T17:27:44.534Z,2565.7
2023-05-25T17:29:41.184Z,2440.6
2023-05-25T17:31:41.230Z,2440.6
2023-05-25T17:33:41.137Z,2321.6
2023-05-25T17:35:41.048Z,2321.6
2023-05-25T17:37:41.305Z,2208.3
2023-05-25T17:39:41.254Z,2208.3
2023-05-25T17:41:44.364Z,2100.6
2023-05-25T17:43:41.253Z,1998.2
2023-05-25T17:45:41.276Z,1900.7
2023-05-25T17:47:41.523Z,1808
2023-05-25T17:49:41.231Z,1719.9
2023-05-25T17:51:41.556Z,1636
2023-05-25T17:53:41.108Z,1556.2
2023-05-25T17:55:41.140Z,1480.3
2023-05-25T17:57:41.740Z,1408.1
2023-05-25T17:59:45.822Z,1408.1
2023-05-25T18:01:44.817Z,1339.4
2023-05-25T18:03:41.309Z,1274.1
2023-05-25T18:05:44.734Z,1212
2023-05-25T18:07:47.761Z,1152.9
2023-05-25T18:09:41.642Z,1096.6
2023-05-25T18:11:44.594Z,1043.1
2023-05-25T18:13:44.745Z,992.3
2023-05-25T18:15:41.089Z,943.9
2023-05-25T18:17:41.518Z,897.8
2023-05-25T18:19:41.456Z,854.1
2023-05-25T18:21:41.339Z,812.4
2023-05-25T18:23:41.235Z,699.2
2023-05-25T18:25:41.315Z,665.1
2023-05-25T18:27:47.921Z,632.7
2023-05-25T18:29:41.213Z,601.8
2023-05-25T18:31:44.574Z,544.6
2023-05-25T18:35:44.718Z,468.7
2023-05-25T18:37:47.729Z,445.9
2023-05-25T18:39:44.592Z,403.4
2023-05-25T18:41:41.222Z,365
2023-05-25T18:43:41.382Z,330.3
2023-05-25T18:45:47.829Z,298.9
2023-05-25T18:47:41.288Z,270.4
2023-05-25T18:49:41.188Z,244.7
2023-05-25T18:51:41.297Z,210.6
2023-05-25T18:53:41.216Z,190.6
2023-05-25T18:55:41.604Z,164
2023-05-25T18:57:41.072Z,141.2
2023-05-25T18:59:41.635Z,121.5
2023-05-25T19:03:41.212Z,85.6
2023-05-25T19:05:41.182Z,70.1
2023-05-25T19:07:58.083Z,57.4
2023-05-25T19:09:41.242Z,44.7
2023-05-25T19:11:44.526Z,36.6
2023-05-25T19:13:41.207Z,28.5
2023-05-25T19:15:41.177Z,22.2
2023-05-25T19:17:47.664Z,16.4
2023-05-25T19:19:44.657Z,12.8
2023-05-25T19:21:41.336Z,9.5
2023-05-25T19:23:41.310Z,7
2023-05-25T19:25:44.903Z,5.2
2023-05-25T19:27:41.151Z,3.9
2023-05-25T19:29:41.365Z,2.9
2023-05-25T19:31:44.622Z,2
2023-05-25T19:33:41.118Z,1.6
2023-05-25T19:35:47.713Z,1.2
2023-05-25T19:37:44.654Z,0.8
2023-05-25T19:39:44.643Z,0.6
2023-05-25T19:41:41.197Z,0.4
2023-05-25T19:43:44.694Z,0.3
2023-05-25T19:45:41.089Z,0.3
2023-05-25T19:47:41.170Z,0.2
2023-05-25T19:49:44.704Z,0.1
2023-05-25T19:51:44.652Z,0.1
2023-05-25T19:53:41.168Z,0.1
2023-05-25T19:55:44.694Z,0.1
2023-05-25T19:57:41.565Z,0
2023-05-25T19:59:41.095Z,0
2023-05-25T20:01:44.724Z,0
2023-05-25T20:03:44.573Z,0
2023-05-25T20:07:47.756Z,0
2023-05-25T20:09:41.369Z,0
2023-05-25T20:11:41.396Z,1
2023-05-25T20:13:44.758Z,1
2023-05-25T20:15:41.206Z,1
2023-05-25T20:19:41.228Z,1
2023-05-25T20:21:44.644Z,1
2023-05-25T20:23:44.333Z,1
2023-05-25T20:25:41.179Z,1
2023-05-25T20:27:41.332Z,1
2023-05-25T20:29:41.496Z,1
2023-05-25T20:31:41.318Z,1
2023-05-25T20:33:41.199Z,1
2023-05-25T20:35:44.696Z,1
2023-05-25T20:37:47.786Z,1
2023-05-25T20:39:41.121Z,1
2023-05-25T20:41:41.100Z,1
2023-05-25T20:43:41.621Z,1
2023-05-25T20:45:41.502Z,1
2023-05-25T20:47:44.688Z,1
2023-05-25T20:49:41.190Z,1
2023-05-25T20:51:41.425Z,1
2023-05-25T20:53:44.448Z,1
2023-05-25T20:55:41.132Z,1
2023-05-25T20:57:41.150Z,1
2023-05-25T20:59:41.203Z,1
2023-05-25T21:01:44.845Z,1
2023-05-25T21:03:41.179Z,1
2023-05-25T21:05:44.479Z,1
2023-05-25T21:11:41.495Z,1
2023-05-25T21:13:44.697Z,1
2023-05-25T21:15:41.106Z,1
2023-05-25T21:17:41.554Z,1
2023-05-25T21:19:41.379Z,1
2023-05-25T21:21:41.498Z,1
2023-05-25T21:23:41.127Z,1
2023-05-25T21:25:41.275Z,1
2023-05-25T21:27:44.525Z,1
2023-05-25T21:29:41.406Z,1
2023-05-25T21:31:44.561Z,1
2023-05-25T21:33:41.181Z,1
2023-05-25T21:35:41.227Z,1
2023-05-25T21:37:41.259Z,1
2023-05-25T21:39:44.554Z,1
2023-05-25T21:41:44.388Z,1
2023-05-25T21:43:41.109Z,1
2023-05-25T21:45:41.495Z,1
2023-05-25T21:47:41.510Z,1
2023-05-25T21:49:41.603Z,1
2023-05-25T21:51:44.490Z,1
2023-05-25T21:53:41.276Z,1
2023-05-25T21:55:47.690Z,1
2023-05-25T21:57:41.104Z,1
2023-05-25T21:59:44.634Z,1
2023-05-25T22:01:41.211Z,1
2023-05-25T22:03:44.336Z,1
2023-05-25T22:05:44.733Z,1
2023-05-25T22:07:41.134Z,1
2023-05-25T22:09:41.096Z,1
2023-05-25T22:11:41.257Z,1
2023-05-25T22:15:41.099Z,1
2023-05-25T22:17:41.343Z,1
2023-05-25T22:19:43.111Z,1
2023-05-25T22:21:41.562Z,1
2023-05-25T22:23:44.490Z,1
2023-05-25T22:27:44.648Z,1
2023-05-25T22:29:44.674Z,1
2023-05-25T22:33:44.564Z,1
2023-05-25T22:35:44.470Z,1
2023-05-25T22:37:41.410Z,1
2023-05-25T22:39:44.300Z,1
2023-05-25T22:41:41.301Z,1
2023-05-25T22:43:41.156Z,1
2023-05-25T22:45:44.581Z,1
2023-05-25T22:47:41.226Z,1
2023-05-25T22:49:42.208Z,1
2023-05-25T22:51:41.128Z,1
2023-05-25T22:53:41.108Z,1
2023-05-25T22:55:41.182Z,1
2023-05-25T22:59:41.544Z,1
2023-05-25T23:01:41.220Z,1
2023-05-25T23:03:41.399Z,1
2023-05-25T23:05:41.555Z,1
2023-05-25T23:07:44.445Z,1
2023-05-25T23:09:41.386Z,1
2023-05-25T23:11:41.229Z,1
2023-05-25T23:13:41.210Z,1
2023-05-25T23:15:44.745Z,1
2023-05-25T23:17:41.111Z,1
2023-05-25T23:19:41.235Z,1
2023-05-25T23:21:41.171Z,1
2023-05-25T23:23:44.622Z,1
2023-05-25T23:25:41.238Z,1
2023-05-25T23:27:41.103Z,1
2023-05-25T23:29:41.203Z,1
2023-05-25T23:31:41.208Z,1
2023-05-25T23:33:41.474Z,1
2023-05-25T23:35:44.596Z,1
2023-05-25T23:37:41.334Z,1
2023-05-25T23:39:41.430Z,1
2023-05-25T23:41:41.133Z,1
2023-05-25T23:43:41.303Z,1
2023-05-25T23:45:41.274Z,1
2023-05-25T23:47:47.890Z,1
2023-05-25T23:49:47.764Z,1
2023-05-25T23:51:41.105Z,1
2023-05-25T23:53:41.119Z,1
2023-05-25T23:55:41.623Z,1
2023-05-25T23:57:41.084Z,1
2023-05-25T23:59:41.268Z,1
